createdAt,value
2023-05-10T00:00:29.763Z,97928.73
2023-05-10T00:02:48.212Z,97926.13
2023-05-10T00:04:52.095Z,97927.02
2023-05-10T00:07:04.405Z,97928.35
2023-05-10T00:09:12.314Z,97928.55
2023-05-10T00:11:15.686Z,97930.36
2023-05-10T00:13:22.663Z,97931.33
2023-05-10T00:15:42.452Z,97925.23
2023-05-10T00:17:49.422Z,97920.80
2023-05-10T00:19:52.736Z,97918.64
2023-05-10T00:22:02.845Z,97922.40
2023-05-10T00:24:08.791Z,97919.21
2023-05-10T00:26:11.386Z,97917.20
2023-05-10T00:28:16.525Z,97916.33
2023-05-10T00:30:32.202Z,97914.92
2023-05-10T00:32:49.490Z,97910.86
2023-05-10T00:34:52.505Z,97910.80
2023-05-10T00:36:55.944Z,97911.44
2023-05-10T00:39:01.452Z,97911.60
2023-05-10T00:41:07.625Z,97909.13
2023-05-10T00:43:14.787Z,97906.16
2023-05-10T00:45:27.566Z,97906.17
2023-05-10T00:47:51.637Z,97904.80
2023-05-10T00:50:00.895Z,97903.49
2023-05-10T00:52:06.141Z,97900.80
2023-05-10T00:54:20.392Z,97901.98
2023-05-10T00:56:26.404Z,97902.02
2023-05-10T00:58:29.802Z,97900.73
2023-05-10T01:00:35.606Z,97901.55
2023-05-10T01:02:39.669Z,97897.91
2023-05-10T01:04:51.861Z,97900.19
2023-05-10T01:06:55.125Z,97899.60
2023-05-10T01:08:59.796Z,97896.92
2023-05-10T01:11:04.489Z,97894.07
2023-05-10T01:13:10.362Z,97895.55
2023-05-10T01:15:25.549Z,97896.23
2023-05-10T01:17:41.436Z,97899.45
2023-05-10T01:19:46.509Z,97897.63
2023-05-10T01:21:59.856Z,97898.70
2023-05-10T01:24:34.073Z,97895.84
2023-05-10T01:27:13.479Z,97893.58
2023-05-10T01:29:22.574Z,97900.92
2023-05-10T01:32:08.451Z,97904.95
2023-05-10T01:34:26.177Z,97906.19
2023-05-10T01:36:37.479Z,97906.50
2023-05-10T01:39:03.272Z,97903.83
2023-05-10T01:41:26.937Z,97904.90
2023-05-10T01:43:39.708Z,97905.21
2023-05-10T01:46:02.672Z,97906.64
2023-05-10T01:48:12.961Z,97903.25
2023-05-10T01:50:24.989Z,97903.36
2023-05-10T01:52:33.830Z,97904.90
2023-05-10T01:54:42.912Z,97901.86
2023-05-10T01:56:49.134Z,97902.63
2023-05-10T01:58:58.124Z,97905.54
2023-05-10T02:01:11.633Z,97905.30
2023-05-10T02:03:18.688Z,97910.44
2023-05-10T02:05:31.293Z,97909.90
2023-05-10T02:07:39.556Z,97907.36
2023-05-10T02:09:49.959Z,97910.09
2023-05-10T02:11:55.200Z,97912.17
2023-05-10T02:14:10.794Z,97915.83
2023-05-10T02:16:16.179Z,97918.41
2023-05-10T02:18:19.782Z,97913.29
2023-05-10T02:23:01.094Z,97907.55
2023-05-10T02:25:08.029Z,97907.44
2023-05-10T02:27:13.064Z,97908.61
2023-05-10T02:29:21.612Z,97906.02
2023-05-10T02:31:26.610Z,97904.55
2023-05-10T02:33:32.022Z,97904.92
2023-05-10T02:35:40.857Z,97903.27
2023-05-10T02:37:53.205Z,97906.75
2023-05-10T02:40:06.321Z,97908.60
2023-05-10T02:42:11.705Z,97908.25
2023-05-10T02:44:16.388Z,97906.08
2023-05-10T02:46:21.533Z,97909.86
2023-05-10T02:48:29.245Z,97916.60
2023-05-10T02:50:35.823Z,97915.52
2023-05-10T02:53:15.675Z,97913.43
2023-05-10T02:55:25.021Z,97913.44
2023-05-10T02:57:35.096Z,97914.38
2023-05-10T02:59:38.284Z,97915.10
2023-05-10T03:01:45.788Z,97912.36
2023-05-10T03:04:17.798Z,97910.72
2023-05-10T03:06:27.176Z,97905.56
2023-05-10T03:08:31.509Z,97902.92
2023-05-10T03:11:03.666Z,97903.84
2023-05-10T03:13:32.839Z,97901.66
2023-05-10T03:15:48.612Z,97905.56
2023-05-10T03:18:06.844Z,97902.98
2023-05-10T03:20:15.747Z,97902.93
2023-05-10T03:22:29.396Z,97905.56
2023-05-10T03:24:36.270Z,97904.48
2023-05-10T03:26:40.482Z,97903.23
2023-05-10T03:28:53.221Z,97906.20
2023-05-10T03:30:58.278Z,97911.16
2023-05-10T03:33:08.656Z,97911.88
2023-05-10T03:35:19.572Z,97915.31
2023-05-10T03:37:22.407Z,97916.78
2023-05-10T03:39:27.740Z,97916.92
2023-05-10T03:41:32.441Z,97917.04
2023-05-10T03:43:38.178Z,97917.69
2023-05-10T03:45:45.716Z,97914.23
2023-05-10T03:47:48.794Z,97914.95
2023-05-10T03:49:54.808Z,97912.48
2023-05-10T03:52:08.108Z,97914.33
2023-05-10T03:54:11.966Z,97917.16
2023-05-10T03:56:16.611Z,97917.00
2023-05-10T03:58:19.568Z,97917.59
2023-05-10T04:00:22.778Z,97914.98
2023-05-10T04:02:28.207Z,97915.46
2023-05-10T04:04:32.453Z,97920.89
2023-05-10T04:06:36.803Z,97921.48
2023-05-10T04:08:44.688Z,97921.97
2023-05-10T04:10:49.353Z,97923.00
2023-05-10T04:12:52.265Z,97924.68
2023-05-10T04:14:54.961Z,97925.17
2023-05-10T04:16:58.863Z,97925.56
2023-05-10T04:19:01.529Z,97928.96
2023-05-10T04:21:05.038Z,97931.95
2023-05-10T04:23:09.836Z,97934.09
2023-05-10T04:25:13.161Z,97934.14
2023-05-10T04:27:32.086Z,97936.88
2023-05-10T04:29:35.079Z,97936.55
2023-05-10T04:31:38.413Z,97937.48
2023-05-10T04:33:41.661Z,97938.84
2023-05-10T04:35:46.527Z,97941.15
2023-05-10T04:37:51.611Z,97940.77
2023-05-10T04:39:55.898Z,97945.59
2023-05-10T04:42:03.469Z,97944.74
2023-05-10T04:44:08.736Z,97943.34
2023-05-10T04:46:11.420Z,97950.89
2023-05-10T04:48:14.338Z,97947.30
2023-05-10T04:50:17.756Z,97951.57
2023-05-10T04:52:21.412Z,97954.16
2023-05-10T04:54:24.558Z,97955.77
2023-05-10T04:56:27.776Z,97958.32
2023-05-10T04:58:33.112Z,97962.48
2023-05-10T05:00:36.611Z,97969.14
2023-05-10T05:02:39.508Z,97971.53
2023-05-10T05:04:44.166Z,97976.05
2023-05-10T05:06:46.890Z,97973.89
2023-05-10T05:08:51.017Z,97980.64
2023-05-10T05:10:54.299Z,97980.02
2023-05-10T05:12:57.766Z,97987.34
2023-05-10T05:15:01.339Z,97986.64
2023-05-10T05:17:05.037Z,97989.59
2023-05-10T05:19:07.779Z,97988.09
2023-05-10T05:21:20.837Z,97996.25
2023-05-10T05:23:26.095Z,97992.52
2023-05-10T05:25:29.400Z,98001.13
2023-05-10T05:27:32.731Z,98002.27
2023-05-10T05:29:36.580Z,98007.95
2023-05-10T05:31:39.452Z,98012.25
2023-05-10T05:33:42.747Z,98013.19
2023-05-10T05:35:48.698Z,98013.84
2023-05-10T05:37:51.386Z,98014.77
2023-05-10T05:39:56.768Z,98019.73
2023-05-10T05:41:59.590Z,98019.19
2023-05-10T05:44:02.477Z,98022.04
2023-05-10T05:46:06.484Z,98023.69
2023-05-10T05:48:09.354Z,98024.44
2023-05-10T05:50:12.223Z,98023.03
2023-05-10T05:52:16.236Z,98026.89
2023-05-10T05:54:41.729Z,98027.98
2023-05-10T05:56:45.373Z,98028.83
2023-05-10T05:58:48.797Z,98032.50
2023-05-10T06:00:53.083Z,98036.98
2023-05-10T06:02:58.106Z,98036.79
2023-05-10T06:05:01.539Z,98037.86
2023-05-10T06:07:05.609Z,98042.61
2023-05-10T06:09:10.412Z,98043.54
2023-05-10T06:11:14.311Z,98050.13
2023-05-10T06:13:17.019Z,98050.30
2023-05-10T06:15:19.621Z,98050.79
2023-05-10T06:17:23.402Z,98049.23
2023-05-10T06:19:27.797Z,98052.98
2023-05-10T06:21:32.941Z,98054.39
2023-05-10T06:23:37.465Z,98058.77
2023-05-10T06:25:40.439Z,98058.23
2023-05-10T06:27:43.876Z,98066.16
2023-05-10T06:29:52.138Z,98064.78
2023-05-10T06:32:00.314Z,98070.29
2023-05-10T06:34:03.292Z,98071.98
2023-05-10T06:36:06.162Z,98067.08
2023-05-10T06:38:08.749Z,98067.21
2023-05-10T06:40:13.371Z,98069.05
2023-05-10T06:42:17.218Z,98076.45
2023-05-10T06:44:22.444Z,98069.48
2023-05-10T06:46:28.413Z,98076.73
2023-05-10T06:48:31.031Z,98078.87
2023-05-10T06:50:35.996Z,98084.84
2023-05-10T06:52:42.437Z,98086.13
2023-05-10T06:54:49.411Z,98085.16
2023-05-10T06:56:54.564Z,98085.58
2023-05-10T06:58:58.089Z,98087.52
2023-05-10T07:01:07.461Z,98087.85
2023-05-10T07:03:11.840Z,98085.69
2023-05-10T07:05:15.331Z,98087.05
2023-05-10T07:07:18.258Z,98082.84
2023-05-10T07:09:22.434Z,98086.48
2023-05-10T07:11:26.089Z,98088.16
2023-05-10T07:13:32.615Z,98090.66
2023-05-10T07:15:36.337Z,98093.00
2023-05-10T07:17:40.196Z,98095.38
2023-05-10T07:19:45.677Z,98098.50
2023-05-10T07:21:50.108Z,98102.59
2023-05-10T07:23:54.000Z,98100.93
2023-05-10T07:26:01.065Z,98101.92
2023-05-10T07:28:03.650Z,98104.20
2023-05-10T07:30:08.860Z,98104.14
2023-05-10T07:32:13.457Z,98109.76
2023-05-10T07:34:16.509Z,98109.45
2023-05-10T07:36:19.159Z,98108.27
2023-05-10T07:38:23.689Z,98109.48
2023-05-10T07:40:27.296Z,98107.20
2023-05-10T07:42:30.949Z,98107.16
2023-05-10T07:44:33.994Z,98107.27
2023-05-10T07:46:37.020Z,98110.29
2023-05-10T07:48:40.542Z,98106.88
2023-05-10T07:50:43.464Z,98114.54
2023-05-10T07:52:48.847Z,98112.81
2023-05-10T07:54:51.946Z,98112.54
2023-05-10T07:56:56.268Z,98116.70
2023-05-10T07:59:05.026Z,98117.16
2023-05-10T08:01:09.705Z,98114.09
2023-05-10T08:03:14.361Z,98115.61
2023-05-10T08:05:18.249Z,98117.46
2023-05-10T08:07:23.044Z,98122.81
2023-05-10T08:09:25.883Z,98122.37
2023-05-10T08:11:29.440Z,98125.80
2023-05-10T08:13:44.204Z,98127.81
2023-05-10T08:15:51.048Z,98124.80
2023-05-10T08:17:55.660Z,98126.00
2023-05-10T08:19:58.985Z,98128.52
2023-05-10T08:22:04.252Z,98129.67
2023-05-10T08:24:07.724Z,98134.89
2023-05-10T08:26:12.187Z,98136.64
2023-05-10T08:28:18.539Z,98135.14
2023-05-10T08:30:22.381Z,98137.48
2023-05-10T08:32:24.982Z,98136.42
2023-05-10T08:34:29.414Z,98138.05
2023-05-10T08:36:33.564Z,98142.09
2023-05-10T08:38:39.599Z,98144.86
2023-05-10T08:40:42.863Z,98143.79
2023-05-10T08:42:57.885Z,98144.74
2023-05-10T08:45:25.439Z,98146.63
2023-05-10T08:47:30.836Z,98152.81
2023-05-10T08:49:35.257Z,98155.02
2023-05-10T08:51:48.110Z,98157.61
2023-05-10T08:53:53.855Z,98159.05
2023-05-10T08:55:58.685Z,98159.77
2023-05-10T08:58:08.457Z,98162.98
2023-05-10T09:00:24.854Z,98160.39
2023-05-10T09:02:28.682Z,98161.31
2023-05-10T09:04:34.777Z,98159.67
2023-05-10T09:06:38.421Z,98164.02
2023-05-10T09:08:44.530Z,98163.64
2023-05-10T09:10:50.650Z,98166.98
2023-05-10T09:13:04.538Z,98170.33
2023-05-10T09:15:10.002Z,98166.58
2023-05-10T09:17:17.117Z,98169.34
2023-05-10T09:19:21.525Z,98170.71
2023-05-10T09:21:30.708Z,98171.96
2023-05-10T09:23:46.740Z,98174.45
2023-05-10T09:26:06.065Z,98175.19
2023-05-10T09:28:13.976Z,98175.35
2023-05-10T09:30:28.795Z,98176.98
2023-05-10T09:32:43.411Z,98173.89
2023-05-10T09:34:53.051Z,98171.38
2023-05-10T09:36:58.976Z,98170.11
2023-05-10T09:39:04.380Z,98169.80
2023-05-10T09:41:19.276Z,98171.73
2023-05-10T09:43:22.035Z,98175.33
2023-05-10T09:45:38.557Z,98174.70
2023-05-10T09:47:42.963Z,98173.36
2023-05-10T09:49:52.703Z,98173.96
2023-05-10T09:52:06.914Z,98172.83
2023-05-10T09:54:17.744Z,98177.56
2023-05-10T09:56:37.011Z,98179.15
2023-05-10T09:58:42.518Z,98178.11
2023-05-10T10:00:49.021Z,98177.39
2023-05-10T10:03:01.598Z,98178.06
2023-05-10T10:05:07.522Z,98178.67
2023-05-10T10:07:11.422Z,98183.36
2023-05-10T10:09:15.046Z,98181.10
2023-05-10T10:11:18.133Z,98189.63
2023-05-10T10:13:21.936Z,98186.88
2023-05-10T10:15:25.799Z,98189.56
2023-05-10T10:17:31.616Z,98194.84
2023-05-10T10:19:37.373Z,98194.05
2023-05-10T10:21:40.735Z,98194.42
2023-05-10T10:23:45.137Z,98199.05
2023-05-10T10:25:49.999Z,98200.90
2023-05-10T10:27:57.485Z,98198.53
2023-05-10T10:30:10.339Z,98201.73
2023-05-10T10:32:39.301Z,98201.84
2023-05-10T10:34:45.275Z,98199.27
2023-05-10T10:36:55.756Z,98196.61
2023-05-10T10:39:12.247Z,98197.98
2023-05-10T10:41:36.006Z,98198.39
2023-05-10T10:43:42.848Z,98194.39
2023-05-10T10:46:18.901Z,98193.41
2023-05-10T10:48:27.188Z,98196.46
2023-05-10T10:50:32.005Z,98190.77
2023-05-10T10:52:38.264Z,98190.82
2023-05-10T10:54:45.177Z,98193.17
2023-05-10T10:57:17.707Z,98189.79
2023-05-10T10:59:29.933Z,98191.34
2023-05-10T11:01:40.335Z,98189.80
2023-05-10T11:04:14.413Z,98191.96
2023-05-10T11:06:31.050Z,98186.50
2023-05-10T11:08:48.936Z,98187.98
2023-05-10T11:11:02.236Z,98181.99
2023-05-10T11:13:09.005Z,98183.89
2023-05-10T11:15:13.182Z,98183.77
2023-05-10T11:17:36.264Z,98183.05
2023-05-10T11:20:09.584Z,98181.79
2023-05-10T11:22:17.671Z,98182.38
2023-05-10T11:24:25.010Z,98180.83
2023-05-10T11:26:35.389Z,98188.54
2023-05-10T11:28:49.536Z,98188.66
2023-05-10T11:30:53.208Z,98189.54
2023-05-10T11:32:57.189Z,98184.42
2023-05-10T11:35:01.860Z,98187.65
2023-05-10T11:37:06.298Z,98184.23
2023-05-10T11:39:12.969Z,98185.59
2023-05-10T11:41:24.182Z,98187.07
2023-05-10T11:43:31.811Z,98190.38
2023-05-10T11:45:37.141Z,98189.02
2023-05-10T11:47:44.912Z,98188.95
2023-05-10T11:49:53.162Z,98187.90
2023-05-10T11:52:16.735Z,98191.48
2023-05-10T11:54:23.423Z,98193.33
2023-05-10T11:56:28.420Z,98197.25
2023-05-10T11:58:34.500Z,98196.95
2023-05-10T12:00:47.684Z,98195.79
2023-05-10T12:02:53.104Z,98197.73
2023-05-10T12:05:01.871Z,98193.73
2023-05-10T12:07:15.470Z,98192.77
2023-05-10T12:09:35.466Z,98196.20
2023-05-10T12:11:44.526Z,98198.38
2023-05-10T12:13:48.307Z,98200.39
2023-05-10T12:16:02.574Z,98196.39
2023-05-10T12:18:15.370Z,98193.16
2023-05-10T12:20:22.590Z,98198.21
2023-05-10T12:22:36.016Z,98198.93
2023-05-10T12:24:42.584Z,98195.90
2023-05-10T12:26:49.327Z,98189.52
2023-05-10T12:28:52.311Z,98192.21
2023-05-10T12:30:56.670Z,98193.14
2023-05-10T12:33:18.512Z,98195.59
2023-05-10T12:35:24.967Z,98202.28
2023-05-10T12:37:46.316Z,98202.59
2023-05-10T12:39:56.078Z,98207.20
2023-05-10T12:41:59.567Z,98207.27
2023-05-10T12:44:10.786Z,98205.13
2023-05-10T12:46:17.061Z,98210.80
2023-05-10T12:48:21.511Z,98210.16
2023-05-10T12:50:27.870Z,98210.90
2023-05-10T12:53:02.240Z,98206.63
2023-05-10T12:55:06.008Z,98208.63
2023-05-10T12:57:09.464Z,98210.79
2023-05-10T12:59:12.443Z,98210.36
2023-05-10T13:01:17.637Z,98206.58
2023-05-10T13:03:20.662Z,98206.23
2023-05-10T13:05:29.506Z,98205.09
2023-05-10T13:07:39.566Z,98200.14
2023-05-10T13:09:43.267Z,98199.58
2023-05-10T13:11:48.446Z,98202.92
2023-05-10T13:13:53.575Z,98201.45
2023-05-10T13:16:04.028Z,98201.84
2023-05-10T13:18:10.900Z,98203.86
2023-05-10T13:20:13.863Z,98206.25
2023-05-10T13:22:32.427Z,98206.14
2023-05-10T13:24:48.996Z,98203.95
2023-05-10T13:26:57.066Z,98201.69
2023-05-10T13:29:01.188Z,98203.71
2023-05-10T13:31:13.501Z,98202.02
2023-05-10T13:33:19.626Z,98200.96
2023-05-10T13:35:25.509Z,98201.95
2023-05-10T13:37:36.720Z,98201.80
2023-05-10T13:39:39.560Z,98196.84
2023-05-10T13:41:44.855Z,98196.69
2023-05-10T13:43:50.440Z,98192.42
2023-05-10T13:45:55.541Z,98194.30
2023-05-10T13:48:01.861Z,98193.94
2023-05-10T13:50:13.432Z,98193.97
2023-05-10T13:52:22.084Z,98188.69
2023-05-10T13:54:27.050Z,98189.46
2023-05-10T13:56:32.974Z,98188.34
2023-05-10T13:58:36.823Z,98189.46
2023-05-10T14:00:40.388Z,98191.52
2023-05-10T14:02:44.702Z,98186.11
2023-05-10T14:04:49.453Z,98186.77
2023-05-10T14:06:53.641Z,98185.88
2023-05-10T14:09:00.893Z,98185.35
2023-05-10T14:11:16.609Z,98186.04
2023-05-10T14:13:23.612Z,98182.52
2023-05-10T14:15:28.749Z,98178.55
2023-05-10T14:17:34.829Z,98180.73
2023-05-10T14:19:39.900Z,98177.32
2023-05-10T14:21:44.068Z,98175.37
2023-05-10T14:23:46.830Z,98175.67
2023-05-10T14:25:54.378Z,98172.73
2023-05-10T14:27:57.875Z,98170.29
2023-05-10T14:30:03.409Z,98173.54
2023-05-10T14:32:08.755Z,98173.80
2023-05-10T14:34:13.537Z,98173.77
2023-05-10T14:36:16.965Z,98175.19
2023-05-10T14:38:27.393Z,98173.10
2023-05-10T14:40:41.875Z,98177.86
2023-05-10T14:42:49.676Z,98175.56
2023-05-10T14:45:00.647Z,98179.85
2023-05-10T14:47:12.247Z,98180.05
2023-05-10T14:49:15.352Z,98180.10
2023-05-10T14:51:20.674Z,98185.14
2023-05-10T14:53:23.822Z,98180.42
2023-05-10T14:55:27.009Z,98179.06
2023-05-10T14:57:31.449Z,98178.23
2023-05-10T14:59:34.306Z,98179.36
2023-05-10T15:01:39.150Z,98180.25
2023-05-10T15:03:50.878Z,98179.23
2023-05-10T15:06:01.075Z,98179.64
2023-05-10T15:08:11.286Z,98180.78
2023-05-10T15:10:15.641Z,98183.96
2023-05-10T15:12:19.852Z,98188.48
2023-05-10T15:14:24.157Z,98188.07
2023-05-10T15:16:29.026Z,98184.95
2023-05-10T15:18:32.717Z,98187.67
2023-05-10T15:20:35.908Z,98184.98
2023-05-10T15:22:42.590Z,98186.44
2023-05-10T15:24:47.332Z,98195.56
2023-05-10T15:26:51.645Z,98205.70
2023-05-10T15:29:12.526Z,98204.98
2023-05-10T15:31:17.037Z,98206.71
2023-05-10T15:33:19.872Z,98216.09
2023-05-10T15:35:28.942Z,98218.31
2023-05-10T15:37:34.250Z,98221.70
2023-05-10T15:39:38.912Z,98221.14
2023-05-10T15:41:44.851Z,98227.61
2023-05-10T15:44:10.008Z,98227.34
2023-05-10T15:46:22.145Z,98232.73
2023-05-10T15:48:27.493Z,98233.33
2023-05-10T15:50:34.979Z,98234.44
2023-05-10T15:52:40.697Z,98240.11
2023-05-10T15:54:47.344Z,98245.22
2023-05-10T15:57:05.397Z,98248.20
2023-05-10T15:59:32.965Z,98252.79
2023-05-10T16:01:36.577Z,98252.85
2023-05-10T16:03:41.160Z,98257.73
2023-05-10T16:05:44.295Z,98258.52
2023-05-10T16:07:47.632Z,98262.35
2023-05-10T16:09:50.928Z,98262.33
2023-05-10T16:11:56.845Z,98268.16
2023-05-10T16:13:59.856Z,98270.03
2023-05-10T16:16:04.566Z,98271.08
2023-05-10T16:18:14.127Z,98275.83
2023-05-10T16:20:21.284Z,98274.89
2023-05-10T16:22:28.821Z,98275.02
2023-05-10T16:24:35.401Z,98279.45
2023-05-10T16:26:41.413Z,98281.88
2023-05-10T16:28:46.825Z,98286.13
2023-05-10T16:30:49.806Z,98285.96
2023-05-10T16:32:54.399Z,98290.52
2023-05-10T16:34:58.563Z,98285.48
2023-05-10T16:37:02.255Z,98287.18
2023-05-10T16:39:13.633Z,98289.05
2023-05-10T16:41:18.847Z,98289.29
2023-05-10T16:43:25.862Z,98292.34
2023-05-10T16:45:43.792Z,98290.13
2023-05-10T16:47:49.940Z,98294.19
2023-05-10T16:49:52.989Z,98295.71
2023-05-10T16:52:00.849Z,98296.55
2023-05-10T16:54:04.988Z,98300.02
2023-05-10T16:56:09.438Z,98302.11
2023-05-10T16:58:15.116Z,98300.35
2023-05-10T17:00:18.283Z,98299.75
2023-05-10T17:02:22.955Z,98300.73
2023-05-10T17:04:32.617Z,98301.45
2023-05-10T17:06:38.395Z,98303.34
2023-05-10T17:08:43.434Z,98305.85
2023-05-10T17:10:56.950Z,98312.84
2023-05-10T17:13:08.687Z,98313.61
2023-05-10T17:15:16.829Z,98311.63
2023-05-10T17:17:25.439Z,98315.34
2023-05-10T17:19:28.761Z,98314.81
2023-05-10T17:21:32.550Z,98320.24
2023-05-10T17:23:38.314Z,98320.76
2023-05-10T17:25:42.201Z,98321.98
2023-05-10T17:27:44.897Z,98323.02
2023-05-10T17:29:48.652Z,98321.11
2023-05-10T17:31:52.313Z,98321.62
2023-05-10T17:33:58.244Z,98327.08
2023-05-10T17:36:09.035Z,98329.47
2023-05-10T17:38:13.933Z,98330.19
2023-05-10T17:40:18.234Z,98331.62
2023-05-10T17:42:24.138Z,98334.48
2023-05-10T17:44:28.921Z,98335.73
2023-05-10T17:46:33.189Z,98337.61
2023-05-10T17:48:37.760Z,98334.91
2023-05-10T17:50:45.139Z,98335.69
2023-05-10T17:52:50.770Z,98337.23
2023-05-10T17:54:56.912Z,98339.58
2023-05-10T17:57:00.964Z,98339.10
2023-05-10T17:59:04.306Z,98342.00
2023-05-10T18:01:18.329Z,98345.17
2023-05-10T18:03:41.827Z,98349.10
2023-05-10T18:05:47.028Z,98349.36
2023-05-10T18:07:51.173Z,98350.98
2023-05-10T18:09:54.460Z,98352.05
2023-05-10T18:11:59.408Z,98354.63
2023-05-10T18:14:04.426Z,98355.44
2023-05-10T18:16:17.760Z,98356.09
2023-05-10T18:18:22.893Z,98357.70
2023-05-10T18:20:26.524Z,98356.05
2023-05-10T18:22:30.986Z,98355.02
2023-05-10T18:24:42.200Z,98353.29
2023-05-10T18:26:50.105Z,98356.30
2023-05-10T18:28:53.297Z,98357.93
2023-05-10T18:30:56.596Z,98358.02
2023-05-10T18:33:02.698Z,98361.51
2023-05-10T18:35:09.112Z,98364.82
2023-05-10T18:37:14.163Z,98361.97
2023-05-10T18:39:18.410Z,98362.95
2023-05-10T18:41:26.913Z,98364.59
2023-05-10T18:43:31.917Z,98363.38
2023-05-10T18:45:35.087Z,98363.68
2023-05-10T18:47:40.395Z,98368.46
2023-05-10T18:52:12.747Z,98369.86
2023-05-10T18:54:22.988Z,98375.74
2023-05-10T18:56:30.097Z,98376.68
2023-05-10T18:58:36.138Z,98379.42
2023-05-10T19:00:41.665Z,98382.32
2023-05-10T19:02:51.923Z,98383.02
2023-05-10T19:04:59.712Z,98381.34
2023-05-10T19:07:05.390Z,98385.13
2023-05-10T19:09:10.422Z,98388.53
2023-05-10T19:11:14.433Z,98389.15
2023-05-10T19:13:18.347Z,98394.46
2023-05-10T19:15:36.006Z,98391.34
2023-05-10T19:17:42.387Z,98390.73
2023-05-10T19:19:56.223Z,98391.33
2023-05-10T19:22:00.193Z,98394.45
2023-05-10T19:24:06.723Z,98395.13
2023-05-10T19:26:13.689Z,98397.02
2023-05-10T19:28:36.043Z,98397.70
2023-05-10T19:30:45.689Z,98402.83
2023-05-10T19:32:52.114Z,98403.31
2023-05-10T19:34:59.092Z,98408.06
2023-05-10T19:37:01.896Z,98405.23
2023-05-10T19:39:07.234Z,98407.26
2023-05-10T19:41:14.526Z,98404.20
2023-05-10T19:43:46.585Z,98408.32
2023-05-10T19:45:57.635Z,98407.55
2023-05-10T19:48:02.021Z,98405.23
2023-05-10T19:50:12.444Z,98405.77
2023-05-10T19:52:17.462Z,98409.98
2023-05-10T19:54:21.395Z,98409.56
2023-05-10T19:56:29.342Z,98409.12
2023-05-10T19:58:35.649Z,98407.33
2023-05-10T20:00:42.561Z,98406.40
2023-05-10T20:02:46.651Z,98411.14
2023-05-10T20:04:57.424Z,98415.86
2023-05-10T20:07:05.742Z,98410.08
2023-05-10T20:09:10.098Z,98415.63
2023-05-10T20:11:13.886Z,98414.61
2023-05-10T20:13:23.851Z,98417.00
2023-05-10T20:15:31.215Z,98415.69
2023-05-10T20:17:36.574Z,98414.61
2023-05-10T20:19:40.014Z,98414.50
2023-05-10T20:21:49.245Z,98411.96
2023-05-10T20:23:55.381Z,98413.31
2023-05-10T20:26:02.141Z,98413.63
2023-05-10T20:28:11.224Z,98414.23
2023-05-10T20:30:20.022Z,98415.86
2023-05-10T20:32:25.644Z,98413.41
2023-05-10T20:34:29.398Z,98410.83
2023-05-10T20:36:34.395Z,98407.31
2023-05-10T20:38:42.375Z,98408.15
2023-05-10T20:40:56.397Z,98407.35
2023-05-10T20:43:07.370Z,98411.00
2023-05-10T20:45:17.316Z,98407.27
2023-05-10T20:47:20.633Z,98411.77
2023-05-10T20:49:35.749Z,98408.98
2023-05-10T20:51:49.350Z,98409.80
2023-05-10T20:53:57.018Z,98408.14
2023-05-10T20:55:59.906Z,98410.02
2023-05-10T20:58:16.237Z,98409.59
2023-05-10T21:00:37.248Z,98414.85
2023-05-10T21:02:48.897Z,98413.38
2023-05-10T21:04:56.999Z,98410.02
2023-05-10T21:07:09.618Z,98412.15
2023-05-10T21:09:52.870Z,98412.59
2023-05-10T21:11:58.208Z,98409.02
2023-05-10T21:14:04.167Z,98412.23
2023-05-10T21:16:10.418Z,98410.02
2023-05-10T21:18:23.690Z,98409.59
2023-05-10T21:20:33.703Z,98408.52
2023-05-10T21:22:47.436Z,98409.54
2023-05-10T21:24:54.812Z,98408.19
2023-05-10T21:27:01.484Z,98407.90
2023-05-10T21:31:46.382Z,98407.82
2023-05-10T21:33:50.561Z,98404.59
2023-05-10T21:35:59.596Z,98406.31
2023-05-10T21:38:09.895Z,98406.89
2023-05-10T21:40:17.689Z,98408.42
2023-05-10T21:42:22.763Z,98406.46
2023-05-10T21:44:31.438Z,98408.63
2023-05-10T21:46:36.115Z,98406.04
2023-05-10T21:48:44.082Z,98406.39
2023-05-10T21:50:58.553Z,98409.42
2023-05-10T21:53:11.698Z,98407.80
2023-05-10T21:55:31.055Z,98409.68
2023-05-10T21:57:54.967Z,98409.13
2023-05-10T21:59:58.601Z,98408.92
2023-05-10T22:02:04.050Z,98411.34
2023-05-10T22:04:11.744Z,98407.42
2023-05-10T22:06:21.964Z,98410.61
2023-05-10T22:08:30.093Z,98405.89
2023-05-10T22:10:35.698Z,98408.09
2023-05-10T22:12:41.494Z,98406.84
2023-05-10T22:14:50.047Z,98406.05
2023-05-10T22:17:01.407Z,98402.04
2023-05-10T22:19:06.245Z,98403.95
2023-05-10T22:21:14.064Z,98405.56
2023-05-10T22:23:19.954Z,98406.06
2023-05-10T22:25:24.283Z,98406.02
2023-05-10T22:27:37.818Z,98407.05
2023-05-10T22:29:54.805Z,98404.36
2023-05-10T22:32:05.983Z,98403.73
2023-05-10T22:34:15.271Z,98404.98
2023-05-10T22:36:20.615Z,98406.20
2023-05-10T22:38:25.472Z,98405.59
2023-05-10T22:40:28.458Z,98405.70
2023-05-10T22:42:32.468Z,98400.55
2023-05-10T22:44:35.895Z,98402.77
2023-05-10T22:46:39.557Z,98405.04
2023-05-10T22:48:49.666Z,98404.27
2023-05-10T22:50:52.487Z,98405.02
2023-05-10T22:52:57.916Z,98406.98
2023-05-10T22:55:01.228Z,98407.16
2023-05-10T22:57:04.993Z,98406.50
2023-05-10T22:59:10.269Z,98403.09
2023-05-10T23:01:14.991Z,98405.65
2023-05-10T23:03:19.785Z,98408.77
2023-05-10T23:05:23.294Z,98406.42
2023-05-10T23:07:27.828Z,98407.15
2023-05-10T23:09:35.666Z,98407.83
2023-05-10T23:11:40.306Z,98402.99
2023-05-10T23:13:44.840Z,98404.06
2023-05-10T23:15:48.482Z,98404.87
2023-05-10T23:17:51.627Z,98408.19
2023-05-10T23:19:58.573Z,98407.16
2023-05-10T23:22:01.421Z,98408.13
2023-05-10T23:24:06.392Z,98406.37
2023-05-10T23:26:10.387Z,98407.45
2023-05-10T23:28:13.612Z,98408.87
2023-05-10T23:30:41.257Z,98408.73
2023-05-10T23:32:45.535Z,98404.65
2023-05-10T23:34:49.708Z,98405.89
2023-05-10T23:36:52.804Z,98401.36
2023-05-10T23:38:57.309Z,98402.60
2023-05-10T23:41:08.270Z,98404.14
2023-05-10T23:43:18.634Z,98399.57
2023-05-10T23:45:25.469Z,98402.13
2023-05-10T23:47:32.415Z,98401.36
2023-05-10T23:49:35.548Z,98398.21
2023-05-10T23:51:42.086Z,98399.14
2023-05-10T23:53:45.206Z,98397.75
2023-05-10T23:55:52.486Z,98399.27
2023-05-10T23:57:55.703Z,98396.75
